Arroyo De La Ventana, Argentina
Current Conditions -  °F | °C
As of 1:00 PM on Saturday 25 Oct 2014 (Local Time) from SAZN Reporting Station
Clear Clear  
Wind Chill: 82°   Ceiling: Unl
Heat Index: 82°   Visibility: 6mi
Dew Point: 48°   Wind: 10mph
Humidity: 30%   Direction: 270°W
Pressure: 29.83"   Gusts: NA
Location:  41.79°S, 66.53°W
Report Text: SAZN 251600Z 27009KT CAVOK 28/09 Q1010
Loading
Personal Weather Stations






























Interactive Weather Map
Tropical Storm Tracking
New forecast layout! Learn more

10-Day Weather Forecast

Advertisements
Track Severe Weather on mobile